createdAt,value
2022-09-09T00:01:25.553Z,63.13
2022-09-09T00:04:05.021Z,62.66
2022-09-09T00:06:39.578Z,62.55
2022-09-09T00:09:19.538Z,63.05
2022-09-09T00:11:57.689Z,62.98
2022-09-09T00:14:38.702Z,63.41
2022-09-09T00:17:14.339Z,62.70
2022-09-09T00:19:51.637Z,62.04
2022-09-09T00:22:24.829Z,62.53
2022-09-09T00:24:57.690Z,62.39
2022-09-09T00:27:48.024Z,62.81
2022-09-09T00:30:23.867Z,63.06
2022-09-09T00:33:01.017Z,63.55
2022-09-09T00:35:32.709Z,62.96
2022-09-09T00:38:08.209Z,62.64
2022-09-09T00:41:12.484Z,62.37
2022-09-09T00:43:42.612Z,62.79
2022-09-09T00:46:15.915Z,62.56
2022-09-09T00:48:56.208Z,62.22
2022-09-09T00:51:51.594Z,62.45
2022-09-09T00:54:38.016Z,62.64
2022-09-09T00:57:16.199Z,62.87
2022-09-09T00:59:53.797Z,63.36
2022-09-09T01:02:40.451Z,62.30
2022-09-09T01:05:25.959Z,62.05
2022-09-09T01:07:58.246Z,62.43
2022-09-09T01:10:57.497Z,62.05
2022-09-09T01:13:37.379Z,62.94
2022-09-09T01:16:13.032Z,63.00
2022-09-09T01:18:48.022Z,63.26
2022-09-09T01:21:46.001Z,63.93
2022-09-09T01:24:42.399Z,63.29
2022-09-09T01:27:19.157Z,63.94
2022-09-09T01:29:50.957Z,63.91
2022-09-09T01:32:48.609Z,63.91
2022-09-09T01:35:46.814Z,63.85
2022-09-09T01:38:15.864Z,63.92
2022-09-09T01:40:43.541Z,64.04
2022-09-09T01:43:10.914Z,64.23
2022-09-09T01:45:40.573Z,63.69
2022-09-09T01:48:08.298Z,63.47
2022-09-09T01:50:47.530Z,63.42
2022-09-09T01:53:18.486Z,63.60
2022-09-09T01:56:17.523Z,62.56
2022-09-09T01:59:10.100Z,62.72
2022-09-09T02:01:44.112Z,63.70
2022-09-09T02:04:46.833Z,63.53
2022-09-09T02:07:39.563Z,63.73
2022-09-09T02:10:22.337Z,64.01
2022-09-09T02:13:08.655Z,63.52
2022-09-09T02:15:53.761Z,64.01
2022-09-09T02:18:28.088Z,64.19
2022-09-09T02:20:59.023Z,63.66
2022-09-09T02:23:26.830Z,63.94
2022-09-09T02:25:57.708Z,64.41
2022-09-09T02:28:29.525Z,64.01
2022-09-09T02:30:57.624Z,63.72
2022-09-09T02:33:38.535Z,62.75
2022-09-09T02:36:11.170Z,63.07
2022-09-09T02:38:45.014Z,63.47
2022-09-09T02:41:15.351Z,63.28
2022-09-09T02:43:45.630Z,62.96
2022-09-09T02:46:42.011Z,63.86
2022-09-09T02:49:34.319Z,64.15
2022-09-09T02:52:19.880Z,63.44
2022-09-09T02:54:55.988Z,63.66
2022-09-09T02:57:31.556Z,63.86
2022-09-09T03:00:01.597Z,63.81
2022-09-09T03:02:32.873Z,64.08
2022-09-09T03:05:06.454Z,63.82
2022-09-09T03:07:34.791Z,64.03
2022-09-09T03:10:03.844Z,63.35
2022-09-09T03:12:31.127Z,62.96
2022-09-09T03:14:58.534Z,62.69
2022-09-09T03:17:25.957Z,62.80
2022-09-09T03:19:56.296Z,62.49
2022-09-09T03:22:23.611Z,62.08
2022-09-09T03:24:50.965Z,61.93
2022-09-09T03:27:20.744Z,61.92
2022-09-09T03:29:48.397Z,62.54
2022-09-09T03:32:23.759Z,62.89
2022-09-09T03:34:51.363Z,63.13
2022-09-09T03:37:20.142Z,63.12
2022-09-09T03:39:50.570Z,63.65
2022-09-09T03:42:21.719Z,63.82
2022-09-09T03:44:53.138Z,63.51
2022-09-09T03:47:23.808Z,63.73
2022-09-09T03:49:55.501Z,63.87
2022-09-09T03:52:26.177Z,63.92
2022-09-09T03:54:55.482Z,63.49
2022-09-09T03:57:22.936Z,63.49
2022-09-09T03:59:51.161Z,63.71
2022-09-09T04:02:18.506Z,63.42
2022-09-09T04:04:45.776Z,63.28
2022-09-09T04:07:13.178Z,63.39
2022-09-09T04:09:41.363Z,64.09
2022-09-09T04:12:09.378Z,63.82
2022-09-09T04:14:36.735Z,63.85
2022-09-09T04:17:07.525Z,64.18
2022-09-09T04:19:35.249Z,63.34
2022-09-09T04:22:03.384Z,62.08
2022-09-09T04:24:30.713Z,61.81
2022-09-09T04:26:59.855Z,61.72
2022-09-09T04:29:29.057Z,62.18
2022-09-09T04:31:56.627Z,62.23
2022-09-09T04:34:25.355Z,61.68
2022-09-09T04:36:54.254Z,60.91
2022-09-09T04:39:24.496Z,61.44
2022-09-09T04:41:54.572Z,61.25
2022-09-09T04:44:23.278Z,60.94
2022-09-09T04:46:50.908Z,61.10
2022-09-09T04:49:21.041Z,61.38
2022-09-09T04:51:50.594Z,60.50
2022-09-09T04:54:20.240Z,60.51
2022-09-09T04:56:48.905Z,60.84
2022-09-09T04:59:17.197Z,60.75
2022-09-09T05:01:48.103Z,60.45
2022-09-09T05:04:20.248Z,59.62
2022-09-09T05:06:47.616Z,59.05
2022-09-09T05:09:15.255Z,59.33
2022-09-09T05:11:43.120Z,59.39
2022-09-09T05:14:26.394Z,59.14
2022-09-09T05:16:53.883Z,58.74
2022-09-09T05:19:23.643Z,58.62
2022-09-09T05:21:54.454Z,57.74
2022-09-09T05:24:30.635Z,57.06
2022-09-09T05:27:05.746Z,57.11
2022-09-09T05:29:37.006Z,56.24
2022-09-09T05:32:10.603Z,56.06
2022-09-09T05:34:41.006Z,55.85
2022-09-09T05:37:09.080Z,55.70
2022-09-09T05:39:38.337Z,55.51
2022-09-09T05:42:06.403Z,55.08
2022-09-09T05:44:34.502Z,55.17
2022-09-09T05:47:02.864Z,55.29
2022-09-09T05:49:30.386Z,54.00
2022-09-09T05:51:57.829Z,54.44
2022-09-09T05:54:25.312Z,54.18
2022-09-09T05:56:54.907Z,54.33
2022-09-09T05:59:24.453Z,54.06
2022-09-09T06:01:54.440Z,54.12
2022-09-09T06:04:27.465Z,54.12
2022-09-09T06:06:55.033Z,53.72
2022-09-09T06:09:24.224Z,53.61
2022-09-09T06:11:51.855Z,53.89
2022-09-09T06:14:21.751Z,53.44
2022-09-09T06:16:50.925Z,52.54
2022-09-09T06:19:28.295Z,51.98
2022-09-09T06:21:58.303Z,52.79
2022-09-09T06:24:25.896Z,52.42
2022-09-09T06:26:53.503Z,52.19
2022-09-09T06:29:24.494Z,51.53
2022-09-09T06:31:53.335Z,51.50
2022-09-09T06:34:22.981Z,51.30
2022-09-09T06:37:01.263Z,49.80
2022-09-09T06:39:40.445Z,50.21
2022-09-09T06:42:10.107Z,49.61
2022-09-09T06:44:49.348Z,49.52
2022-09-09T06:47:25.841Z,49.03
2022-09-09T06:49:54.429Z,49.94
2022-09-09T06:52:21.935Z,48.39
2022-09-09T06:54:52.127Z,48.33
2022-09-09T06:57:36.495Z,48.42
2022-09-09T07:00:08.502Z,48.64
2022-09-09T07:02:40.306Z,48.30
2022-09-09T07:05:09.961Z,47.93
2022-09-09T07:07:38.043Z,47.39
2022-09-09T07:10:06.768Z,46.34
2022-09-09T07:12:34.604Z,47.37
2022-09-09T07:15:02.060Z,48.37
2022-09-09T07:17:32.693Z,49.95
2022-09-09T07:20:01.047Z,50.80
2022-09-09T07:22:29.821Z,51.50
2022-09-09T07:24:57.741Z,50.77
2022-09-09T07:27:26.146Z,51.66
2022-09-09T07:29:55.490Z,50.15
2022-09-09T07:32:24.794Z,50.25
2022-09-09T07:34:55.009Z,49.84
2022-09-09T07:37:23.467Z,49.95
2022-09-09T07:39:52.350Z,50.55
2022-09-09T07:42:20.692Z,50.60
2022-09-09T07:44:48.587Z,49.77
2022-09-09T07:47:17.463Z,49.70
2022-09-09T07:49:51.005Z,50.29
2022-09-09T07:52:24.940Z,49.79
2022-09-09T07:54:57.768Z,49.55
2022-09-09T07:57:25.270Z,48.66
2022-09-09T07:59:54.088Z,48.50
2022-09-09T08:02:21.983Z,47.58
2022-09-09T08:04:52.848Z,47.10
2022-09-09T08:07:22.763Z,46.41
2022-09-09T08:09:56.923Z,45.82
2022-09-09T08:12:31.837Z,47.07
2022-09-09T08:15:00.186Z,47.09
2022-09-09T08:17:31.597Z,46.93
2022-09-09T08:20:07.071Z,46.24
2022-09-09T08:22:35.689Z,46.08
2022-09-09T08:25:03.531Z,46.23
2022-09-09T08:27:33.428Z,45.49
2022-09-09T08:30:00.964Z,44.08
2022-09-09T08:32:30.526Z,44.38
2022-09-09T08:35:01.071Z,45.03
2022-09-09T08:37:30.288Z,45.60
2022-09-09T08:39:57.889Z,45.74
2022-09-09T08:42:53.327Z,44.68
2022-09-09T08:45:23.478Z,44.50
2022-09-09T08:48:03.539Z,44.81
2022-09-09T08:50:41.611Z,44.78
2022-09-09T08:53:23.873Z,43.59
2022-09-09T08:56:00.500Z,42.59
2022-09-09T08:58:58.544Z,42.13
2022-09-09T09:01:58.174Z,42.22
2022-09-09T09:04:58.008Z,41.65
2022-09-09T09:07:44.088Z,42.34
2022-09-09T09:10:50.494Z,41.15
2022-09-09T09:13:46.098Z,39.90
2022-09-09T09:16:29.733Z,42.96
2022-09-09T09:18:58.328Z,42.30
2022-09-09T09:21:45.217Z,41.15
2022-09-09T09:24:33.749Z,45.76
2022-09-09T09:27:13.335Z,49.74
2022-09-09T09:30:18.133Z,51.04
2022-09-09T09:32:40.673Z,52.44
2022-09-09T09:35:13.668Z,53.25
2022-09-09T09:40:36.741Z,54.55
2022-09-09T09:43:09.913Z,52.67
2022-09-09T09:46:13.864Z,47.15
2022-09-09T09:48:37.364Z,46.45
2022-09-09T09:51:17.069Z,48.61
2022-09-09T09:53:53.605Z,50.92
2022-09-09T09:56:31.551Z,55.14
2022-09-09T09:59:09.298Z,58.69
2022-09-09T10:01:46.848Z,59.55
2022-09-09T10:04:24.471Z,60.92
2022-09-09T10:06:54.898Z,61.71
2022-09-09T10:09:34.636Z,66.75
2022-09-09T10:12:50.473Z,73.35
2022-09-09T10:16:05.183Z,73.11
2022-09-09T10:18:36.621Z,71.76
2022-09-09T10:21:45.242Z,67.86
2022-09-09T10:24:32.708Z,66.44
2022-09-09T10:27:30.332Z,70.44
2022-09-09T10:30:25.831Z,73.59
2022-09-09T10:33:38.614Z,72.72
2022-09-09T10:36:30.144Z,70.93
2022-09-09T10:39:10.406Z,61.46
2022-09-09T10:41:46.923Z,56.93
2022-09-09T10:44:40.013Z,57.14
2022-09-09T10:47:38.293Z,58.47
2022-09-09T10:50:22.371Z,57.23
2022-09-09T10:53:29.592Z,58.41
2022-09-09T10:56:18.006Z,64.39
2022-09-09T10:59:01.044Z,67.20
2022-09-09T11:01:56.821Z,66.94
2022-09-09T11:04:41.441Z,62.92
2022-09-09T11:07:25.985Z,68.83
2022-09-09T11:10:08.529Z,73.76
2022-09-09T11:12:48.239Z,77.70
2022-09-09T11:15:27.936Z,78.24
2022-09-09T11:18:00.399Z,78.66
2022-09-09T11:20:27.973Z,79.61
2022-09-09T11:23:03.626Z,78.05
2022-09-09T11:25:43.225Z,78.22
2022-09-09T11:28:24.705Z,77.96
2022-09-09T11:31:11.251Z,75.15
2022-09-09T11:33:42.422Z,74.75
2022-09-09T11:36:56.884Z,75.52
2022-09-09T11:39:53.506Z,73.92
2022-09-09T11:42:26.740Z,72.42
2022-09-09T11:44:56.267Z,68.21
2022-09-09T11:47:34.827Z,66.07
2022-09-09T11:50:15.881Z,67.86
2022-09-09T11:52:47.252Z,68.94
2022-09-09T11:55:28.863Z,68.58
2022-09-09T11:58:07.002Z,68.87
2022-09-09T12:00:41.056Z,69.44
2022-09-09T12:03:36.384Z,69.40
2022-09-09T12:06:34.728Z,68.77
2022-09-09T12:09:31.445Z,68.62
2022-09-09T12:12:17.174Z,67.40
2022-09-09T12:15:04.457Z,65.86
2022-09-09T12:17:39.836Z,65.84
2022-09-09T12:20:51.597Z,65.95
2022-09-09T12:23:47.390Z,67.39
2022-09-09T12:26:40.800Z,68.21
2022-09-09T12:29:15.417Z,67.82
2022-09-09T12:32:04.907Z,67.88
2022-09-09T12:34:52.182Z,65.99
2022-09-09T12:37:58.377Z,66.23
2022-09-09T12:40:38.867Z,65.35
2022-09-09T12:43:23.083Z,65.54
2022-09-09T12:45:59.162Z,65.59
2022-09-09T12:48:41.512Z,66.13
2022-09-09T12:51:20.834Z,70.34
2022-09-09T12:53:48.638Z,70.34
2022-09-09T12:56:38.019Z,71.32
2022-09-09T12:59:06.433Z,70.23
2022-09-09T13:01:36.232Z,68.91
2022-09-09T13:04:09.431Z,68.01
2022-09-09T13:06:36.924Z,65.62
2022-09-09T13:09:04.561Z,63.94
2022-09-09T13:11:49.277Z,62.00
2022-09-09T13:14:25.268Z,62.61
2022-09-09T13:17:03.800Z,60.49
2022-09-09T13:19:35.129Z,59.56
2022-09-09T13:22:20.388Z,57.68
2022-09-09T13:24:48.113Z,58.33
2022-09-09T13:27:43.995Z,58.37
2022-09-09T13:30:34.879Z,56.16
2022-09-09T13:33:18.567Z,56.75
2022-09-09T13:35:58.480Z,55.37
2022-09-09T13:38:32.437Z,56.64
2022-09-09T13:41:06.116Z,55.84
2022-09-09T13:43:38.730Z,56.20
2022-09-09T13:46:26.760Z,54.98
2022-09-09T13:49:02.943Z,53.24
2022-09-09T13:51:43.468Z,52.71
2022-09-09T13:54:12.117Z,52.21
2022-09-09T13:56:41.008Z,52.12
2022-09-09T13:59:23.174Z,51.34
2022-09-09T14:01:50.491Z,52.22
2022-09-09T14:04:18.493Z,51.49
2022-09-09T14:06:45.976Z,51.10
2022-09-09T14:09:16.752Z,51.47
2022-09-09T14:11:45.262Z,52.19
2022-09-09T14:14:12.864Z,52.79
2022-09-09T14:16:40.174Z,53.05
2022-09-09T14:19:07.473Z,52.72
2022-09-09T14:21:34.753Z,52.68
2022-09-09T14:24:07.287Z,51.07
2022-09-09T14:26:34.790Z,47.83
2022-09-09T14:29:04.785Z,46.72
2022-09-09T14:31:34.703Z,45.58
2022-09-09T14:34:11.589Z,43.83
2022-09-09T14:36:39.353Z,45.41
2022-09-09T14:39:07.039Z,46.52
2022-09-09T14:41:34.404Z,48.92
2022-09-09T14:44:01.861Z,48.91
2022-09-09T14:46:29.754Z,47.56
2022-09-09T14:48:57.573Z,47.57
2022-09-09T14:51:28.391Z,46.01
2022-09-09T14:53:58.381Z,47.31
2022-09-09T14:56:31.268Z,49.00
2022-09-09T14:59:20.415Z,45.64
2022-09-09T15:01:48.196Z,45.18
2022-09-09T15:04:16.014Z,43.99
2022-09-09T15:06:45.685Z,43.00
2022-09-09T15:09:12.987Z,43.49
2022-09-09T15:11:43.269Z,44.58
2022-09-09T15:14:11.230Z,46.50
2022-09-09T15:16:40.954Z,48.97
2022-09-09T15:19:08.610Z,49.11
2022-09-09T15:21:37.458Z,49.37
2022-09-09T15:24:05.755Z,47.97
2022-09-09T15:26:33.507Z,46.86
2022-09-09T15:29:01.274Z,48.67
2022-09-09T15:31:31.869Z,49.95
2022-09-09T15:34:02.173Z,50.16
2022-09-09T15:36:30.898Z,48.38
2022-09-09T15:38:58.276Z,48.81
2022-09-09T15:41:26.903Z,49.46
2022-09-09T15:43:59.888Z,51.34
2022-09-09T15:46:31.919Z,52.48
2022-09-09T15:49:11.658Z,52.65
2022-09-09T15:51:43.960Z,51.48
2022-09-09T15:54:14.933Z,49.76
2022-09-09T15:56:43.104Z,50.98
2022-09-09T15:59:10.899Z,52.74
2022-09-09T16:01:43.516Z,52.33
2022-09-09T16:04:11.731Z,52.49
2022-09-09T16:06:40.341Z,54.24
2022-09-09T16:09:09.453Z,54.28
2022-09-09T16:11:39.217Z,53.55
2022-09-09T16:14:07.826Z,55.07
2022-09-09T16:16:36.393Z,54.68
2022-09-09T16:19:12.824Z,53.83
2022-09-09T16:21:43.191Z,54.97
2022-09-09T16:24:13.505Z,56.04
2022-09-09T16:26:47.596Z,57.59
2022-09-09T16:29:17.079Z,59.08
2022-09-09T16:31:45.732Z,60.19
2022-09-09T16:34:13.490Z,58.94
2022-09-09T16:36:42.520Z,58.52
2022-09-09T16:39:13.276Z,58.82
2022-09-09T16:41:42.131Z,58.99
2022-09-09T16:44:11.361Z,57.71
2022-09-09T16:46:41.242Z,56.35
2022-09-09T16:49:11.443Z,57.76
2022-09-09T16:51:41.859Z,58.35
2022-09-09T16:54:10.792Z,57.91
2022-09-09T16:56:43.710Z,59.26
2022-09-09T16:59:14.448Z,59.32
2022-09-09T17:01:44.427Z,58.67
2022-09-09T17:04:21.589Z,58.08
2022-09-09T17:06:54.263Z,58.79
2022-09-09T17:09:24.032Z,58.82
2022-09-09T17:11:53.428Z,59.84
2022-09-09T17:14:22.506Z,57.88
2022-09-09T17:16:50.419Z,58.05
2022-09-09T17:19:18.193Z,56.16
2022-09-09T17:22:15.444Z,54.34
2022-09-09T17:24:36.544Z,52.88
2022-09-09T17:27:04.850Z,53.89
2022-09-09T17:29:32.231Z,53.39
2022-09-09T17:31:59.522Z,55.27
2022-09-09T17:34:27.074Z,57.02
2022-09-09T17:36:54.431Z,59.63
2022-09-09T17:39:21.809Z,61.89
2022-09-09T17:41:50.097Z,62.72
2022-09-09T17:44:17.638Z,62.83
2022-09-09T17:46:46.579Z,63.97
2022-09-09T17:49:16.999Z,64.96
2022-09-09T17:51:46.977Z,65.18
2022-09-09T17:54:17.962Z,65.71
2022-09-09T17:56:46.501Z,60.88
2022-09-09T17:59:16.042Z,62.98
2022-09-09T18:01:46.809Z,65.57
2022-09-09T18:04:15.799Z,64.34
2022-09-09T18:06:46.883Z,62.93
2022-09-09T18:09:20.286Z,65.45
2022-09-09T18:11:50.308Z,66.72
2022-09-09T18:14:20.945Z,67.39
2022-09-09T18:16:48.472Z,66.62
2022-09-09T18:19:20.500Z,67.74
2022-09-09T18:21:49.541Z,69.86
2022-09-09T18:24:19.861Z,69.76
2022-09-09T18:26:48.601Z,69.55
2022-09-09T18:29:24.357Z,69.59
2022-09-09T18:31:53.555Z,68.96
2022-09-09T18:34:22.361Z,69.18
2022-09-09T18:36:55.416Z,68.52
2022-09-09T18:39:29.125Z,69.37
2022-09-09T18:42:04.296Z,71.17
2022-09-09T18:44:34.402Z,70.78
2022-09-09T18:47:04.782Z,70.67
2022-09-09T18:49:33.563Z,71.08
2022-09-09T18:52:02.560Z,72.29
2022-09-09T18:54:31.593Z,72.16
2022-09-09T18:57:01.110Z,72.23
2022-09-09T18:59:29.281Z,72.60
2022-09-09T19:01:57.327Z,72.75
2022-09-09T19:04:27.703Z,72.90
2022-09-09T19:06:58.360Z,72.54
2022-09-09T19:09:29.654Z,73.28
2022-09-09T19:11:57.706Z,73.41
2022-09-09T19:14:27.618Z,73.29
2022-09-09T19:16:55.742Z,73.62
2022-09-09T19:19:27.278Z,72.93
2022-09-09T19:21:58.064Z,73.13
2022-09-09T19:24:28.699Z,72.83
2022-09-09T19:27:00.352Z,73.11
2022-09-09T19:29:30.297Z,72.94
2022-09-09T19:34:47.307Z,72.63
2022-09-09T19:37:18.142Z,73.06
2022-09-09T19:39:47.143Z,73.21
2022-09-09T19:42:15.501Z,72.97
2022-09-09T19:44:42.972Z,72.62
2022-09-09T19:47:10.305Z,72.40
2022-09-09T19:49:37.547Z,72.55
2022-09-09T19:52:05.142Z,72.24
2022-09-09T19:54:33.145Z,72.64
2022-09-09T19:57:01.424Z,72.21
2022-09-09T19:59:28.958Z,70.84
2022-09-09T20:01:57.170Z,68.44
2022-09-09T20:04:25.149Z,66.31
2022-09-09T20:06:53.394Z,66.83
2022-09-09T20:09:21.724Z,69.19
2022-09-09T20:11:50.251Z,70.18
2022-09-09T20:14:18.565Z,70.03
2022-09-09T20:16:46.673Z,69.65
2022-09-09T20:19:16.785Z,70.40
2022-09-09T20:21:48.155Z,69.72
2022-09-09T20:24:18.680Z,68.22
2022-09-09T20:26:48.407Z,69.51
2022-09-09T20:29:17.904Z,70.03
2022-09-09T20:31:45.868Z,67.78
2022-09-09T20:34:19.054Z,67.26
2022-09-09T20:36:46.886Z,67.20
2022-09-09T20:39:16.955Z,67.00
2022-09-09T20:41:46.263Z,68.73
2022-09-09T20:44:16.687Z,67.76
2022-09-09T20:46:49.521Z,65.54
2022-09-09T20:49:20.204Z,62.28
2022-09-09T20:51:49.911Z,62.00
2022-09-09T20:54:23.664Z,62.70
2022-09-09T20:56:52.950Z,65.01
2022-09-09T20:59:25.156Z,60.19
2022-09-09T21:01:53.765Z,58.96
2022-09-09T21:04:22.468Z,61.17
2022-09-09T21:06:53.669Z,65.44
2022-09-09T21:09:24.744Z,66.61
2022-09-09T21:11:53.947Z,62.94
2022-09-09T21:14:22.421Z,64.85
2022-09-09T21:16:50.994Z,63.82
2022-09-09T21:19:18.924Z,66.08
2022-09-09T21:21:48.131Z,64.95
2022-09-09T21:24:16.649Z,62.52
2022-09-09T21:26:43.911Z,62.64
2022-09-09T21:29:13.988Z,64.71
2022-09-09T21:31:41.470Z,65.86
2022-09-09T21:34:10.050Z,65.28
2022-09-09T21:36:37.489Z,63.58
2022-09-09T21:39:05.382Z,61.27
2022-09-09T21:41:32.673Z,60.30
2022-09-09T21:44:00.608Z,61.99
2022-09-09T21:46:28.484Z,64.98
2022-09-09T21:48:58.915Z,62.38
2022-09-09T21:51:26.218Z,59.78
2022-09-09T21:53:56.300Z,59.68
2022-09-09T21:56:23.967Z,62.44
2022-09-09T21:58:57.076Z,64.55
2022-09-09T22:01:25.102Z,66.11
2022-09-09T22:03:52.840Z,64.76
2022-09-09T22:06:20.675Z,65.74
2022-09-09T22:08:48.254Z,67.39
2022-09-09T22:11:19.106Z,67.54
2022-09-09T22:13:46.534Z,68.81
2022-09-09T22:16:17.765Z,69.71
2022-09-09T22:18:50.656Z,69.06
2022-09-09T22:21:19.230Z,69.85
2022-09-09T22:23:53.649Z,69.36
2022-09-09T22:26:21.684Z,69.72
2022-09-09T22:28:49.531Z,70.46
2022-09-09T22:31:16.962Z,70.69
2022-09-09T22:33:44.406Z,71.18
2022-09-09T22:36:11.754Z,71.27
2022-09-09T22:38:39.476Z,71.42
2022-09-09T22:41:08.844Z,71.91
2022-09-09T22:43:36.864Z,71.31
2022-09-09T22:46:04.797Z,71.31
2022-09-09T22:48:33.756Z,71.34
2022-09-09T22:51:07.880Z,72.17
2022-09-09T22:53:37.579Z,73.41
2022-09-09T22:56:07.905Z,74.41
2022-09-09T22:58:37.635Z,75.51
2022-09-09T23:01:18.236Z,75.05
2022-09-09T23:03:49.328Z,75.99
2022-09-09T23:06:24.742Z,76.28
2022-09-09T23:08:58.176Z,75.86
2022-09-09T23:11:31.853Z,75.53
2022-09-09T23:14:03.134Z,75.59
2022-09-09T23:16:37.300Z,76.43
2022-09-09T23:19:05.416Z,76.79
2022-09-09T23:21:32.819Z,76.71
2022-09-09T23:24:00.963Z,76.92
2022-09-09T23:26:30.088Z,77.04
2022-09-09T23:28:59.092Z,77.62
2022-09-09T23:31:29.451Z,71.49
2022-09-09T23:33:58.323Z,66.11
2022-09-09T23:36:26.432Z,66.39
2022-09-09T23:38:56.496Z,65.85
2022-09-09T23:41:24.121Z,63.53
2022-09-09T23:43:53.328Z,63.55
2022-09-09T23:46:23.900Z,64.50
2022-09-09T23:48:51.990Z,63.21
2022-09-09T23:51:24.210Z,60.89
2022-09-09T23:53:53.920Z,59.90
2022-09-09T23:56:23.497Z,57.80
2022-09-09T23:58:52.002Z,56.92
